X  Chiuso Dati meteorologici dell'aviazione (METAR)     LIPX Verona-Villafranca Valerio Catullo Airport
Temperatura
43°F Temperatura
43°F Punto di rugiada
100% Umidità



Vento
2 MPH
3 KM/O
1 M/S
2 KTS



Calmo
N
Condizioni attuali

Nebbia Nebbia
Pressione 1006.77 (hPa) - 29.73 (inHg)
Visibilità 1.9 (miglio) - 3 (km)
Aeroporto
Codice-Aeroporto LIPX

Posizione: Verona-Villafranca Valerio Catullo Airport
Distanza: 0 (mi)

Metar:
LIPX 240820Z VRB02KT 3000 BR FEW001 SCT060 06/06 Q1007

Ore: 24-02-2024 08:20 CET